Terminal Aerodrome Forecast
Issued by NWS Sterling, VA

Home | Current Version | Previous Version | Text Only | Print | Product List | Glossary On
Versions: 1 2 3 4 5 6 7 8 9 10 11 12 13 14 15 16 17 18 19 20 21 22 23
000
FTUS41 KLWX 011300 AAA
TAFMRB
TAF AMD
KMRB 011353Z 0114/0212 00000KT 2SM BR OVC006
     FM011600 12004KT P6SM SCT009 BKN060
     FM020100 00000KT P6SM BKN200=

USA.gov is the U.S. government's official web portal to all federal, state and local government web resources and services.